sensor_id;sensor_type;location;lat;lon;timestamp;P1;durP1;ratioP1;P2;durP2;ratioP2
44228;SDS011;29904;51.058;5.378;2023-05-31T00:01:32;6.70;;;5.07;;
44228;SDS011;29904;51.058;5.378;2023-05-31T00:03:58;5.57;;;4.72;;
44228;SDS011;29904;51.058;5.378;2023-05-31T00:06:24;7.30;;;5.28;;
44228;SDS011;29904;51.058;5.378;2023-05-31T00:08:50;6.25;;;5.05;;
44228;SDS011;29904;51.058;5.378;2023-05-31T00:11:15;5.82;;;4.93;;
44228;SDS011;29904;51.058;5.378;2023-05-31T00:13:41;6.95;;;5.00;;
44228;SDS011;29904;51.058;5.378;2023-05-31T00:16:09;6.20;;;4.90;;
44228;SDS011;29904;51.058;5.378;2023-05-31T00:18:35;6.03;;;5.15;;
44228;SDS011;29904;51.058;5.378;2023-05-31T00:21:01;6.25;;;5.07;;
44228;SDS011;29904;51.058;5.378;2023-05-31T00:23:29;5.82;;;4.97;;
44228;SDS011;29904;51.058;5.378;2023-05-31T00:25:55;7.05;;;5.50;;
44228;SDS011;29904;51.058;5.378;2023-05-31T00:28:21;6.68;;;5.35;;
44228;SDS011;29904;51.058;5.378;2023-05-31T00:30:46;7.72;;;5.50;;
44228;SDS011;29904;51.058;5.378;2023-05-31T00:33:12;7.90;;;5.90;;
44228;SDS011;29904;51.058;5.378;2023-05-31T00:35:38;7.03;;;5.70;;
44228;SDS011;29904;51.058;5.378;2023-05-31T00:38:07;6.25;;;5.22;;
44228;SDS011;29904;51.058;5.378;2023-05-31T00:40:33;7.63;;;5.47;;
44228;SDS011;29904;51.058;5.378;2023-05-31T00:42:59;6.53;;;5.40;;
44228;SDS011;29904;51.058;5.378;2023-05-31T00:45:26;8.07;;;5.85;;
44228;SDS011;29904;51.058;5.378;2023-05-31T00:47:53;6.95;;;6.13;;
44228;SDS011;29904;51.058;5.378;2023-05-31T00:50:21;7.63;;;6.05;;
44228;SDS011;29904;51.058;5.378;2023-05-31T00:52:48;8.10;;;5.95;;
44228;SDS011;29904;51.058;5.378;2023-05-31T00:55:16;7.72;;;6.10;;
44228;SDS011;29904;51.058;5.378;2023-05-31T00:57:42;8.30;;;6.05;;
44228;SDS011;29904;51.058;5.378;2023-05-31T01:00:08;7.25;;;5.82;;
44228;SDS011;29904;51.058;5.378;2023-05-31T01:02:34;8.03;;;6.30;;
44228;SDS011;29904;51.058;5.378;2023-05-31T01:05:04;8.90;;;6.65;;
44228;SDS011;29904;51.058;5.378;2023-05-31T01:07:30;8.85;;;6.60;;
44228;SDS011;29904;51.058;5.378;2023-05-31T01:09:56;8.18;;;6.35;;
44228;SDS011;29904;51.058;5.378;2023-05-31T01:12:38;8.70;;;6.10;;
44228;SDS011;29904;51.058;5.378;2023-05-31T01:15:19;7.80;;;6.30;;
44228;SDS011;29904;51.058;5.378;2023-05-31T01:17:51;9.05;;;6.63;;
44228;SDS011;29904;51.058;5.378;2023-05-31T01:20:30;8.23;;;6.47;;
44228;SDS011;29904;51.058;5.378;2023-05-31T01:28:55;9.80;;;6.85;;
44228;SDS011;29904;51.058;5.378;2023-05-31T01:31:25;7.80;;;6.45;;
44228;SDS011;29904;51.058;5.378;2023-05-31T01:33:55;9.27;;;6.53;;
44228;SDS011;29904;51.058;5.378;2023-05-31T01:36:21;8.07;;;7.10;;
44228;SDS011;29904;51.058;5.378;2023-05-31T01:38:47;9.73;;;7.40;;
44228;SDS011;29904;51.058;5.378;2023-05-31T01:41:12;10.48;;;6.75;;
44228;SDS011;29904;51.058;5.378;2023-05-31T01:43:41;8.65;;;6.95;;
44228;SDS011;29904;51.058;5.378;2023-05-31T01:46:10;10.60;;;7.20;;
44228;SDS011;29904;51.058;5.378;2023-05-31T01:48:37;9.47;;;7.47;;
44228;SDS011;29904;51.058;5.378;2023-05-31T01:51:05;9.27;;;7.35;;
44228;SDS011;29904;51.058;5.378;2023-05-31T01:53:33;9.27;;;7.32;;
44228;SDS011;29904;51.058;5.378;2023-05-31T01:55:59;9.65;;;7.65;;
44228;SDS011;29904;51.058;5.378;2023-05-31T01:58:28;10.20;;;7.22;;
44228;SDS011;29904;51.058;5.378;2023-05-31T02:00:56;9.47;;;7.37;;
44228;SDS011;29904;51.058;5.378;2023-05-31T02:03:24;8.63;;;7.15;;
44228;SDS011;29904;51.058;5.378;2023-05-31T02:05:55;9.10;;;7.53;;
44228;SDS011;29904;51.058;5.378;2023-05-31T02:08:23;9.30;;;7.68;;
44228;SDS011;29904;51.058;5.378;2023-05-31T02:10:50;8.88;;;7.65;;
44228;SDS011;29904;51.058;5.378;2023-05-31T02:13:17;10.25;;;7.75;;
44228;SDS011;29904;51.058;5.378;2023-05-31T02:15:44;9.73;;;7.65;;
44228;SDS011;29904;51.058;5.378;2023-05-31T02:18:10;9.67;;;8.03;;
44228;SDS011;29904;51.058;5.378;2023-05-31T02:20:35;9.57;;;7.90;;
44228;SDS011;29904;51.058;5.378;2023-05-31T02:23:03;11.30;;;7.90;;
44228;SDS011;29904;51.058;5.378;2023-05-31T02:25:29;9.82;;;7.60;;
44228;SDS011;29904;51.058;5.378;2023-05-31T02:27:55;9.47;;;7.67;;
44228;SDS011;29904;51.058;5.378;2023-05-31T02:30:26;10.88;;;7.93;;
44228;SDS011;29904;51.058;5.378;2023-05-31T02:32:52;10.85;;;7.88;;
44228;SDS011;29904;51.058;5.378;2023-05-31T02:35:19;9.73;;;7.75;;
44228;SDS011;29904;51.058;5.378;2023-05-31T02:37:45;9.53;;;7.87;;
44228;SDS011;29904;51.058;5.378;2023-05-31T02:40:13;13.05;;;8.30;;
44228;SDS011;29904;51.058;5.378;2023-05-31T02:42:40;10.85;;;8.30;;
44228;SDS011;29904;51.058;5.378;2023-05-31T02:45:10;10.70;;;8.32;;
44228;SDS011;29904;51.058;5.378;2023-05-31T02:47:38;10.90;;;8.27;;
44228;SDS011;29904;51.058;5.378;2023-05-31T02:50:05;11.13;;;8.98;;
44228;SDS011;29904;51.058;5.378;2023-05-31T02:52:32;11.57;;;8.98;;
44228;SDS011;29904;51.058;5.378;2023-05-31T02:55:02;11.63;;;8.60;;
44228;SDS011;29904;51.058;5.378;2023-05-31T02:57:28;9.57;;;8.25;;
44228;SDS011;29904;51.058;5.378;2023-05-31T02:59:57;11.20;;;8.88;;
44228;SDS011;29904;51.058;5.378;2023-05-31T03:02:33;12.23;;;9.13;;
44228;SDS011;29904;51.058;5.378;2023-05-31T03:04:59;10.68;;;8.65;;
44228;SDS011;29904;51.058;5.378;2023-05-31T03:07:24;9.82;;;8.43;;
44228;SDS011;29904;51.058;5.378;2023-05-31T03:09:50;11.15;;;8.82;;
44228;SDS011;29904;51.058;5.378;2023-05-31T03:12:16;10.75;;;8.95;;
44228;SDS011;29904;51.058;5.378;2023-05-31T03:14:42;11.18;;;9.13;;
44228;SDS011;29904;51.058;5.378;2023-05-31T03:17:07;11.35;;;8.85;;
44228;SDS011;29904;51.058;5.378;2023-05-31T03:19:33;12.33;;;9.07;;
44228;SDS011;29904;51.058;5.378;2023-05-31T03:22:01;11.45;;;9.20;;
44228;SDS011;29904;51.058;5.378;2023-05-31T03:24:29;12.48;;;9.55;;
44228;SDS011;29904;51.058;5.378;2023-05-31T03:26:55;12.40;;;9.50;;
44228;SDS011;29904;51.058;5.378;2023-05-31T03:29:21;11.63;;;9.13;;
44228;SDS011;29904;51.058;5.378;2023-05-31T03:31:46;13.03;;;9.53;;
44228;SDS011;29904;51.058;5.378;2023-05-31T03:34:12;12.23;;;9.13;;
44228;SDS011;29904;51.058;5.378;2023-05-31T03:36:38;13.07;;;9.60;;
44228;SDS011;29904;51.058;5.378;2023-05-31T03:39:04;11.50;;;9.18;;
44228;SDS011;29904;51.058;5.378;2023-05-31T03:41:31;11.65;;;9.50;;
44228;SDS011;29904;51.058;5.378;2023-05-31T03:43:57;11.52;;;9.00;;
44228;SDS011;29904;51.058;5.378;2023-05-31T03:46:22;10.90;;;8.90;;
44228;SDS011;29904;51.058;5.378;2023-05-31T03:48:49;11.97;;;9.30;;
44228;SDS011;29904;51.058;5.378;2023-05-31T03:51:15;10.87;;;8.90;;
44228;SDS011;29904;51.058;5.378;2023-05-31T03:53:41;13.20;;;10.05;;
44228;SDS011;29904;51.058;5.378;2023-05-31T03:56:07;11.33;;;9.90;;
44228;SDS011;29904;51.058;5.378;2023-05-31T03:58:32;12.80;;;9.50;;
44228;SDS011;29904;51.058;5.378;2023-05-31T04:01:02;12.93;;;10.53;;
44228;SDS011;29904;51.058;5.378;2023-05-31T04:03:28;10.97;;;9.47;;
44228;SDS011;29904;51.058;5.378;2023-05-31T04:05:54;12.80;;;9.73;;
44228;SDS011;29904;51.058;5.378;2023-05-31T04:08:19;11.83;;;9.43;;
44228;SDS011;29904;51.058;5.378;2023-05-31T04:10:45;12.07;;;9.67;;
44228;SDS011;29904;51.058;5.378;2023-05-31T04:13:11;12.33;;;9.93;;
44228;SDS011;29904;51.058;5.378;2023-05-31T04:15:39;11.07;;;9.27;;
44228;SDS011;29904;51.058;5.378;2023-05-31T04:18:04;12.27;;;9.77;;
44228;SDS011;29904;51.058;5.378;2023-05-31T04:20:31;11.20;;;9.50;;
44228;SDS011;29904;51.058;5.378;2023-05-31T04:23:01;11.85;;;9.32;;
44228;SDS011;29904;51.058;5.378;2023-05-31T04:25:26;13.57;;;9.87;;
44228;SDS011;29904;51.058;5.378;2023-05-31T04:27:52;12.38;;;9.98;;
44228;SDS011;29904;51.058;5.378;2023-05-31T04:30:19;12.93;;;9.82;;
44228;SDS011;29904;51.058;5.378;2023-05-31T04:32:44;13.38;;;10.00;;
44228;SDS011;29904;51.058;5.378;2023-05-31T04:35:15;12.67;;;10.00;;
44228;SDS011;29904;51.058;5.378;2023-05-31T04:37:41;13.70;;;10.32;;
44228;SDS011;29904;51.058;5.378;2023-05-31T04:40:07;12.10;;;9.43;;
44228;SDS011;29904;51.058;5.378;2023-05-31T04:42:36;12.18;;;9.80;;
44228;SDS011;29904;51.058;5.378;2023-05-31T04:45:05;13.23;;;9.82;;
44228;SDS011;29904;51.058;5.378;2023-05-31T04:47:32;12.88;;;9.43;;
44228;SDS011;29904;51.058;5.378;2023-05-31T04:50:01;14.43;;;10.30;;
44228;SDS011;29904;51.058;5.378;2023-05-31T04:52:27;12.43;;;9.77;;
44228;SDS011;29904;51.058;5.378;2023-05-31T04:54:58;11.95;;;9.50;;
44228;SDS011;29904;51.058;5.378;2023-05-31T04:57:25;12.60;;;9.77;;
44228;SDS011;29904;51.058;5.378;2023-05-31T04:59:53;14.80;;;10.55;;
44228;SDS011;29904;51.058;5.378;2023-05-31T05:02:21;12.98;;;9.65;;
44228;SDS011;29904;51.058;5.378;2023-05-31T05:04:47;12.88;;;9.70;;
44228;SDS011;29904;51.058;5.378;2023-05-31T05:07:13;12.15;;;9.45;;
44228;SDS011;29904;51.058;5.378;2023-05-31T05:09:40;13.05;;;9.02;;
44228;SDS011;29904;51.058;5.378;2023-05-31T05:12:06;12.77;;;9.18;;
44228;SDS011;29904;51.058;5.378;2023-05-31T05:14:32;11.15;;;8.90;;
44228;SDS011;29904;51.058;5.378;2023-05-31T05:16:58;11.98;;;8.70;;
44228;SDS011;29904;51.058;5.378;2023-05-31T05:19:24;12.95;;;9.60;;
44228;SDS011;29904;51.058;5.378;2023-05-31T05:21:50;12.05;;;9.13;;
44228;SDS011;29904;51.058;5.378;2023-05-31T05:24:16;11.83;;;9.17;;
44228;SDS011;29904;51.058;5.378;2023-05-31T05:26:41;11.67;;;8.97;;
44228;SDS011;29904;51.058;5.378;2023-05-31T05:29:08;12.45;;;9.02;;
44228;SDS011;29904;51.058;5.378;2023-05-31T05:31:33;11.65;;;9.20;;
44228;SDS011;29904;51.058;5.378;2023-05-31T05:33:59;13.60;;;9.70;;
44228;SDS011;29904;51.058;5.378;2023-05-31T05:36:25;12.57;;;9.17;;
44228;SDS011;29904;51.058;5.378;2023-05-31T05:38:51;12.30;;;9.13;;
44228;SDS011;29904;51.058;5.378;2023-05-31T05:41:16;12.38;;;9.35;;
44228;SDS011;29904;51.058;5.378;2023-05-31T05:43:42;13.40;;;9.40;;
44228;SDS011;29904;51.058;5.378;2023-05-31T05:46:08;11.80;;;9.32;;
44228;SDS011;29904;51.058;5.378;2023-05-31T05:48:34;11.30;;;9.03;;
44228;SDS011;29904;51.058;5.378;2023-05-31T05:51:00;12.63;;;9.30;;
44228;SDS011;29904;51.058;5.378;2023-05-31T05:53:26;13.05;;;9.32;;
44228;SDS011;29904;51.058;5.378;2023-05-31T05:55:51;12.33;;;9.30;;
44228;SDS011;29904;51.058;5.378;2023-05-31T05:58:18;11.57;;;8.95;;
44228;SDS011;29904;51.058;5.378;2023-05-31T06:00:45;12.17;;;9.23;;
44228;SDS011;29904;51.058;5.378;2023-05-31T06:03:14;12.18;;;8.95;;
44228;SDS011;29904;51.058;5.378;2023-05-31T06:05:43;11.00;;;8.47;;
44228;SDS011;29904;51.058;5.378;2023-05-31T06:08:12;11.75;;;9.27;;
44228;SDS011;29904;51.058;5.378;2023-05-31T06:10:38;12.17;;;9.13;;
44228;SDS011;29904;51.058;5.378;2023-05-31T06:13:06;11.27;;;8.83;;
44228;SDS011;29904;51.058;5.378;2023-05-31T06:15:32;11.80;;;8.60;;
44228;SDS011;29904;51.058;5.378;2023-05-31T06:17:58;12.20;;;8.77;;
44228;SDS011;29904;51.058;5.378;2023-05-31T06:20:24;11.73;;;8.57;;
44228;SDS011;29904;51.058;5.378;2023-05-31T06:22:51;11.77;;;8.48;;
44228;SDS011;29904;51.058;5.378;2023-05-31T06:25:17;12.80;;;8.40;;
44228;SDS011;29904;51.058;5.378;2023-05-31T06:27:44;10.35;;;7.90;;
44228;SDS011;29904;51.058;5.378;2023-05-31T06:30:11;13.57;;;8.50;;
44228;SDS011;29904;51.058;5.378;2023-05-31T06:32:38;11.23;;;7.90;;
44228;SDS011;29904;51.058;5.378;2023-05-31T06:35:04;12.33;;;8.37;;
44228;SDS011;29904;51.058;5.378;2023-05-31T06:37:31;10.77;;;7.82;;
44228;SDS011;29904;51.058;5.378;2023-05-31T06:39:56;11.60;;;8.10;;
44228;SDS011;29904;51.058;5.378;2023-05-31T06:42:23;11.80;;;8.32;;
44228;SDS011;29904;51.058;5.378;2023-05-31T06:44:50;10.18;;;7.93;;
44228;SDS011;29904;51.058;5.378;2023-05-31T06:47:16;11.80;;;7.60;;
44228;SDS011;29904;51.058;5.378;2023-05-31T06:49:42;11.23;;;7.43;;
44228;SDS011;29904;51.058;5.378;2023-05-31T06:52:08;10.13;;;7.32;;
44228;SDS011;29904;51.058;5.378;2023-05-31T06:54:37;11.57;;;7.80;;
44228;SDS011;29904;51.058;5.378;2023-05-31T06:57:03;12.17;;;7.47;;
44228;SDS011;29904;51.058;5.378;2023-05-31T06:59:30;11.32;;;7.60;;
44228;SDS011;29904;51.058;5.378;2023-05-31T07:01:58;12.35;;;7.70;;
44228;SDS011;29904;51.058;5.378;2023-05-31T07:04:23;11.93;;;7.80;;
44228;SDS011;29904;51.058;5.378;2023-05-31T07:06:49;11.32;;;7.53;;
44228;SDS011;29904;51.058;5.378;2023-05-31T07:09:15;10.87;;;7.43;;
44228;SDS011;29904;51.058;5.378;2023-05-31T07:11:41;9.67;;;7.00;;
44228;SDS011;29904;51.058;5.378;2023-05-31T07:14:08;12.27;;;7.50;;
44228;SDS011;29904;51.058;5.378;2023-05-31T07:16:36;11.55;;;8.00;;
44228;SDS011;29904;51.058;5.378;2023-05-31T07:19:03;12.00;;;7.32;;
44228;SDS011;29904;51.058;5.378;2023-05-31T07:21:29;12.23;;;7.65;;
44228;SDS011;29904;51.058;5.378;2023-05-31T07:23:56;11.52;;;7.88;;
44228;SDS011;29904;51.058;5.378;2023-05-31T07:26:24;11.38;;;7.28;;
44228;SDS011;29904;51.058;5.378;2023-05-31T07:28:50;8.65;;;6.40;;
44228;SDS011;29904;51.058;5.378;2023-05-31T07:31:18;9.13;;;6.38;;
44228;SDS011;29904;51.058;5.378;2023-05-31T07:33:46;11.48;;;7.25;;
44228;SDS011;29904;51.058;5.378;2023-05-31T07:36:12;9.43;;;6.57;;
44228;SDS011;29904;51.058;5.378;2023-05-31T07:38:38;11.15;;;6.68;;
44228;SDS011;29904;51.058;5.378;2023-05-31T07:41:06;10.20;;;6.50;;
44228;SDS011;29904;51.058;5.378;2023-05-31T07:43:31;10.65;;;6.38;;
44228;SDS011;29904;51.058;5.378;2023-05-31T07:45:59;10.47;;;6.60;;
44228;SDS011;29904;51.058;5.378;2023-05-31T07:48:27;9.68;;;6.32;;
44228;SDS011;29904;51.058;5.378;2023-05-31T07:50:53;10.98;;;6.82;;
44228;SDS011;29904;51.058;5.378;2023-05-31T07:53:19;11.90;;;6.40;;
44228;SDS011;29904;51.058;5.378;2023-05-31T07:55:45;10.48;;;5.65;;
44228;SDS011;29904;51.058;5.378;2023-05-31T07:58:11;10.53;;;5.80;;
44228;SDS011;29904;51.058;5.378;2023-05-31T08:00:40;8.88;;;5.80;;
44228;SDS011;29904;51.058;5.378;2023-05-31T08:03:06;9.47;;;6.00;;
44228;SDS011;29904;51.058;5.378;2023-05-31T08:05:34;8.25;;;5.25;;
44228;SDS011;29904;51.058;5.378;2023-05-31T08:08:00;10.63;;;5.63;;
44228;SDS011;29904;51.058;5.378;2023-05-31T08:10:25;9.15;;;5.43;;
44228;SDS011;29904;51.058;5.378;2023-05-31T08:12:51;8.68;;;5.32;;
44228;SDS011;29904;51.058;5.378;2023-05-31T08:15:17;8.73;;;5.47;;
44228;SDS011;29904;51.058;5.378;2023-05-31T08:17:43;8.07;;;5.50;;
44228;SDS011;29904;51.058;5.378;2023-05-31T08:20:11;8.93;;;5.20;;
44228;SDS011;29904;51.058;5.378;2023-05-31T08:22:44;8.38;;;5.25;;
44228;SDS011;29904;51.058;5.378;2023-05-31T08:25:10;7.10;;;4.78;;
44228;SDS011;29904;51.058;5.378;2023-05-31T08:27:41;8.52;;;5.10;;
44228;SDS011;29904;51.058;5.378;2023-05-31T08:30:10;9.70;;;5.13;;
44228;SDS011;29904;51.058;5.378;2023-05-31T08:32:37;9.32;;;5.22;;
44228;SDS011;29904;51.058;5.378;2023-05-31T08:35:03;8.85;;;4.80;;
44228;SDS011;29904;51.058;5.378;2023-05-31T08:37:31;7.03;;;4.50;;
44228;SDS011;29904;51.058;5.378;2023-05-31T08:40:06;8.10;;;4.40;;
44228;SDS011;29904;51.058;5.378;2023-05-31T08:42:37;10.35;;;4.70;;
44228;SDS011;29904;51.058;5.378;2023-05-31T08:45:04;6.43;;;4.00;;
44228;SDS011;29904;51.058;5.378;2023-05-31T08:47:32;8.97;;;4.33;;
44228;SDS011;29904;51.058;5.378;2023-05-31T08:50:03;9.43;;;4.30;;
44228;SDS011;29904;51.058;5.378;2023-05-31T08:52:31;6.68;;;4.40;;
44228;SDS011;29904;51.058;5.378;2023-05-31T08:54:58;8.30;;;4.55;;
44228;SDS011;29904;51.058;5.378;2023-05-31T08:57:24;7.60;;;4.25;;
44228;SDS011;29904;51.058;5.378;2023-05-31T08:59:54;7.45;;;4.28;;
44228;SDS011;29904;51.058;5.378;2023-05-31T09:02:21;10.07;;;5.20;;
44228;SDS011;29904;51.058;5.378;2023-05-31T09:04:48;6.30;;;4.27;;
44228;SDS011;29904;51.058;5.378;2023-05-31T09:07:17;9.30;;;5.27;;
44228;SDS011;29904;51.058;5.378;2023-05-31T09:09:43;9.20;;;4.40;;
44228;SDS011;29904;51.058;5.378;2023-05-31T09:12:09;9.77;;;4.55;;
44228;SDS011;29904;51.058;5.378;2023-05-31T09:14:35;7.40;;;3.90;;
44228;SDS011;29904;51.058;5.378;2023-05-31T09:17:03;8.02;;;4.40;;
44228;SDS011;29904;51.058;5.378;2023-05-31T09:19:30;7.73;;;4.17;;
44228;SDS011;29904;51.058;5.378;2023-05-31T09:21:55;9.68;;;4.78;;
44228;SDS011;29904;51.058;5.378;2023-05-31T09:24:21;7.20;;;4.15;;
44228;SDS011;29904;51.058;5.378;2023-05-31T09:26:48;7.47;;;4.40;;
44228;SDS011;29904;51.058;5.378;2023-05-31T09:29:17;8.70;;;4.43;;
44228;SDS011;29904;51.058;5.378;2023-05-31T09:31:44;7.53;;;4.28;;
44228;SDS011;29904;51.058;5.378;2023-05-31T09:34:28;8.63;;;4.20;;
44228;SDS011;29904;51.058;5.378;2023-05-31T09:36:58;7.95;;;3.90;;
44228;SDS011;29904;51.058;5.378;2023-05-31T09:39:26;6.90;;;4.20;;
44228;SDS011;29904;51.058;5.378;2023-05-31T09:41:55;7.32;;;4.35;;
44228;SDS011;29904;51.058;5.378;2023-05-31T09:44:26;8.23;;;4.20;;
44228;SDS011;29904;51.058;5.378;2023-05-31T09:46:55;8.73;;;4.70;;
44228;SDS011;29904;51.058;5.378;2023-05-31T09:49:31;7.72;;;4.20;;
44228;SDS011;29904;51.058;5.378;2023-05-31T09:51:57;7.53;;;4.00;;
44228;SDS011;29904;51.058;5.378;2023-05-31T09:54:23;7.80;;;4.10;;
44228;SDS011;29904;51.058;5.378;2023-05-31T09:56:51;7.57;;;4.20;;
44228;SDS011;29904;51.058;5.378;2023-05-31T09:59:17;6.30;;;3.27;;
44228;SDS011;29904;51.058;5.378;2023-05-31T10:01:43;7.47;;;3.50;;
44228;SDS011;29904;51.058;5.378;2023-05-31T10:04:10;8.02;;;3.33;;
44228;SDS011;29904;51.058;5.378;2023-05-31T10:06:37;4.77;;;2.57;;
44228;SDS011;29904;51.058;5.378;2023-05-31T10:09:06;4.75;;;2.35;;
44228;SDS011;29904;51.058;5.378;2023-05-31T10:11:34;5.77;;;2.97;;
44228;SDS011;29904;51.058;5.378;2023-05-31T10:14:03;11.13;;;3.97;;
44228;SDS011;29904;51.058;5.378;2023-05-31T10:16:50;7.28;;;3.20;;
44228;SDS011;29904;51.058;5.378;2023-05-31T10:19:24;5.63;;;2.93;;
44228;SDS011;29904;51.058;5.378;2023-05-31T10:21:56;5.25;;;2.50;;
44228;SDS011;29904;51.058;5.378;2023-05-31T10:24:24;6.90;;;2.90;;
44228;SDS011;29904;51.058;5.378;2023-05-31T10:26:56;6.00;;;2.83;;
44228;SDS011;29904;51.058;5.378;2023-05-31T10:29:31;6.80;;;3.10;;
44228;SDS011;29904;51.058;5.378;2023-05-31T10:32:06;6.43;;;3.15;;
44228;SDS011;29904;51.058;5.378;2023-05-31T10:34:54;6.97;;;2.88;;
44228;SDS011;29904;51.058;5.378;2023-05-31T10:37:22;4.10;;;2.00;;
44228;SDS011;29904;51.058;5.378;2023-05-31T10:42:32;6.38;;;2.40;;
44228;SDS011;29904;51.058;5.378;2023-05-31T10:45:20;5.38;;;2.15;;
44228;SDS011;29904;51.058;5.378;2023-05-31T10:50:54;6.90;;;3.10;;
44228;SDS011;29904;51.058;5.378;2023-05-31T10:53:21;5.93;;;2.85;;
44228;SDS011;29904;51.058;5.378;2023-05-31T10:55:47;5.57;;;2.78;;
44228;SDS011;29904;51.058;5.378;2023-05-31T11:01:15;5.83;;;2.27;;
44228;SDS011;29904;51.058;5.378;2023-05-31T11:03:52;4.88;;;2.20;;
44228;SDS011;29904;51.058;5.378;2023-05-31T11:06:31;6.22;;;2.40;;
44228;SDS011;29904;51.058;5.378;2023-05-31T11:09:12;7.65;;;2.60;;
44228;SDS011;29904;51.058;5.378;2023-05-31T11:11:48;7.15;;;2.80;;
44228;SDS011;29904;51.058;5.378;2023-05-31T11:21:58;6.90;;;2.45;;
44228;SDS011;29904;51.058;5.378;2023-05-31T11:27:20;5.67;;;2.00;;
44228;SDS011;29904;51.058;5.378;2023-05-31T11:32:16;4.15;;;1.70;;
44228;SDS011;29904;51.058;5.378;2023-05-31T11:34:53;4.95;;;1.92;;
44228;SDS011;29904;51.058;5.378;2023-05-31T11:37:21;3.72;;;1.70;;
44228;SDS011;29904;51.058;5.378;2023-05-31T11:40:10;6.35;;;1.90;;
44228;SDS011;29904;51.058;5.378;2023-05-31T11:42:41;6.97;;;1.90;;
44228;SDS011;29904;51.058;5.378;2023-05-31T11:45:12;5.22;;;1.83;;
44228;SDS011;29904;51.058;5.378;2023-05-31T11:50:28;4.57;;;1.70;;
44228;SDS011;29904;51.058;5.378;2023-05-31T11:52:56;5.53;;;1.80;;
44228;SDS011;29904;51.058;5.378;2023-05-31T11:55:29;5.35;;;1.70;;
44228;SDS011;29904;51.058;5.378;2023-05-31T11:57:58;6.22;;;2.00;;
44228;SDS011;29904;51.058;5.378;2023-05-31T12:00:27;4.60;;;2.10;;
44228;SDS011;29904;51.058;5.378;2023-05-31T12:02:55;6.03;;;1.80;;
44228;SDS011;29904;51.058;5.378;2023-05-31T12:05:23;6.10;;;1.80;;
44228;SDS011;29904;51.058;5.378;2023-05-31T12:07:53;4.75;;;1.75;;
44228;SDS011;29904;51.058;5.378;2023-05-31T12:10:25;4.00;;;1.40;;
44228;SDS011;29904;51.058;5.378;2023-05-31T12:13:00;6.68;;;1.73;;
44228;SDS011;29904;51.058;5.378;2023-05-31T12:15:29;4.22;;;1.80;;
44228;SDS011;29904;51.058;5.378;2023-05-31T12:17:59;5.23;;;1.43;;
44228;SDS011;29904;51.058;5.378;2023-05-31T12:20:30;5.22;;;1.85;;
44228;SDS011;29904;51.058;5.378;2023-05-31T12:23:12;4.35;;;1.60;;
44228;SDS011;29904;51.058;5.378;2023-05-31T12:25:49;4.13;;;1.65;;
44228;SDS011;29904;51.058;5.378;2023-05-31T12:28:17;6.53;;;1.70;;
44228;SDS011;29904;51.058;5.378;2023-05-31T12:30:46;2.67;;;1.30;;
44228;SDS011;29904;51.058;5.378;2023-05-31T12:33:12;3.30;;;1.40;;
44228;SDS011;29904;51.058;5.378;2023-05-31T12:35:39;3.45;;;1.42;;
44228;SDS011;29904;51.058;5.378;2023-05-31T12:38:05;3.38;;;1.30;;
44228;SDS011;29904;51.058;5.378;2023-05-31T12:40:36;5.47;;;1.52;;
44228;SDS011;29904;51.058;5.378;2023-05-31T12:43:13;3.17;;;1.40;;
44228;SDS011;29904;51.058;5.378;2023-05-31T12:45:45;5.00;;;1.70;;
44228;SDS011;29904;51.058;5.378;2023-05-31T12:48:11;4.28;;;1.63;;
44228;SDS011;29904;51.058;5.378;2023-05-31T12:50:37;7.77;;;1.83;;
44228;SDS011;29904;51.058;5.378;2023-05-31T12:53:09;4.60;;;1.50;;
44228;SDS011;29904;51.058;5.378;2023-05-31T12:55:40;5.43;;;1.50;;
44228;SDS011;29904;51.058;5.378;2023-05-31T12:58:06;4.47;;;1.40;;
44228;SDS011;29904;51.058;5.378;2023-05-31T13:00:32;4.28;;;1.50;;
44228;SDS011;29904;51.058;5.378;2023-05-31T13:02:58;4.68;;;1.55;;
44228;SDS011;29904;51.058;5.378;2023-05-31T13:05:24;4.88;;;1.38;;
44228;SDS011;29904;51.058;5.378;2023-05-31T13:07:51;4.40;;;1.48;;
44228;SDS011;29904;51.058;5.378;2023-05-31T13:10:18;4.18;;;1.40;;
44228;SDS011;29904;51.058;5.378;2023-05-31T13:12:43;4.70;;;1.57;;
44228;SDS011;29904;51.058;5.378;2023-05-31T13:15:09;5.75;;;1.60;;
44228;SDS011;29904;51.058;5.378;2023-05-31T13:17:35;4.10;;;1.35;;
44228;SDS011;29904;51.058;5.378;2023-05-31T13:20:01;5.90;;;1.70;;
44228;SDS011;29904;51.058;5.378;2023-05-31T13:22:28;4.97;;;1.75;;
44228;SDS011;29904;51.058;5.378;2023-05-31T13:24:55;5.10;;;1.58;;
44228;SDS011;29904;51.058;5.378;2023-05-31T13:27:21;5.13;;;1.30;;
44228;SDS011;29904;51.058;5.378;2023-05-31T13:29:47;3.80;;;1.33;;
44228;SDS011;29904;51.058;5.378;2023-05-31T13:32:15;4.97;;;1.50;;
44228;SDS011;29904;51.058;5.378;2023-05-31T13:34:40;3.53;;;1.47;;
44228;SDS011;29904;51.058;5.378;2023-05-31T13:37:06;5.15;;;1.60;;
44228;SDS011;29904;51.058;5.378;2023-05-31T13:39:34;4.25;;;1.23;;
44228;SDS011;29904;51.058;5.378;2023-05-31T13:41:59;4.47;;;1.37;;
44228;SDS011;29904;51.058;5.378;2023-05-31T13:44:26;3.55;;;1.42;;
44228;SDS011;29904;51.058;5.378;2023-05-31T13:46:52;4.90;;;1.30;;
44228;SDS011;29904;51.058;5.378;2023-05-31T13:49:17;4.25;;;1.33;;
44228;SDS011;29904;51.058;5.378;2023-05-31T13:51:45;3.40;;;1.23;;
44228;SDS011;29904;51.058;5.378;2023-05-31T13:54:14;4.60;;;1.33;;
44228;SDS011;29904;51.058;5.378;2023-05-31T13:56:41;3.40;;;1.20;;
44228;SDS011;29904;51.058;5.378;2023-05-31T13:59:07;2.42;;;1.02;;
44228;SDS011;29904;51.058;5.378;2023-05-31T14:01:33;7.20;;;1.10;;
44228;SDS011;29904;51.058;5.378;2023-05-31T14:03:58;5.20;;;1.20;;
44228;SDS011;29904;51.058;5.378;2023-05-31T14:06:24;4.13;;;1.10;;
44228;SDS011;29904;51.058;5.378;2023-05-31T14:08:50;3.90;;;1.10;;
44228;SDS011;29904;51.058;5.378;2023-05-31T14:11:16;4.03;;;1.10;;
44228;SDS011;29904;51.058;5.378;2023-05-31T14:13:42;4.13;;;1.30;;
44228;SDS011;29904;51.058;5.378;2023-05-31T14:16:08;5.80;;;1.70;;
44228;SDS011;29904;51.058;5.378;2023-05-31T14:18:34;3.80;;;1.17;;
44228;SDS011;29904;51.058;5.378;2023-05-31T14:21:00;3.00;;;1.20;;
44228;SDS011;29904;51.058;5.378;2023-05-31T14:23:26;4.35;;;1.30;;
44228;SDS011;29904;51.058;5.378;2023-05-31T14:25:52;4.85;;;1.20;;
44228;SDS011;29904;51.058;5.378;2023-05-31T14:28:18;4.17;;;1.37;;
44228;SDS011;29904;51.058;5.378;2023-05-31T14:30:44;5.10;;;1.35;;
44228;SDS011;29904;51.058;5.378;2023-05-31T14:33:10;5.53;;;1.38;;
44228;SDS011;29904;51.058;5.378;2023-05-31T14:35:36;3.15;;;1.13;;
44228;SDS011;29904;51.058;5.378;2023-05-31T14:38:02;4.45;;;1.17;;
44228;SDS011;29904;51.058;5.378;2023-05-31T14:40:27;3.88;;;1.27;;
44228;SDS011;29904;51.058;5.378;2023-05-31T14:42:53;3.87;;;1.30;;
44228;SDS011;29904;51.058;5.378;2023-05-31T14:45:20;4.33;;;1.23;;
44228;SDS011;29904;51.058;5.378;2023-05-31T14:47:46;4.30;;;1.23;;
44228;SDS011;29904;51.058;5.378;2023-05-31T14:50:12;3.37;;;1.23;;
44228;SDS011;29904;51.058;5.378;2023-05-31T14:52:38;2.45;;;1.23;;
44228;SDS011;29904;51.058;5.378;2023-05-31T14:55:03;2.85;;;1.20;;
44228;SDS011;29904;51.058;5.378;2023-05-31T14:57:29;2.72;;;1.08;;
44228;SDS011;29904;51.058;5.378;2023-05-31T14:59:56;5.00;;;1.23;;
44228;SDS011;29904;51.058;5.378;2023-05-31T15:02:22;3.10;;;1.20;;
44228;SDS011;29904;51.058;5.378;2023-05-31T15:04:48;4.05;;;1.30;;
44228;SDS011;29904;51.058;5.378;2023-05-31T15:07:13;3.50;;;1.30;;
44228;SDS011;29904;51.058;5.378;2023-05-31T15:09:40;3.90;;;1.20;;
44228;SDS011;29904;51.058;5.378;2023-05-31T15:12:06;2.00;;;0.95;;
44228;SDS011;29904;51.058;5.378;2023-05-31T15:14:34;2.58;;;1.10;;
44228;SDS011;29904;51.058;5.378;2023-05-31T15:17:01;3.60;;;1.30;;